sensor_id;sensor_type;location;lat;lon;timestamp;temperature;humidity
46676;DHT22;32412;51.478;5.694;2024-02-14T00:01:34;8.10;99.90
46676;DHT22;32412;51.478;5.694;2024-02-14T00:04:02;8.10;99.90
46676;DHT22;32412;51.478;5.694;2024-02-14T00:06:28;8.10;99.90
46676;DHT22;32412;51.478;5.694;2024-02-14T00:08:54;8.10;99.90
46676;DHT22;32412;51.478;5.694;2024-02-14T00:11:19;8.10;99.90
46676;DHT22;32412;51.478;5.694;2024-02-14T00:13:45;8.10;99.90
46676;DHT22;32412;51.478;5.694;2024-02-14T00:16:10;8.20;99.90
46676;DHT22;32412;51.478;5.694;2024-02-14T00:18:36;8.20;99.90
46676;DHT22;32412;51.478;5.694;2024-02-14T00:21:02;8.20;99.90
46676;DHT22;32412;51.478;5.694;2024-02-14T00:23:28;8.20;99.90
46676;DHT22;32412;51.478;5.694;2024-02-14T00:25:53;8.20;99.90
46676;DHT22;32412;51.478;5.694;2024-02-14T00:28:19;8.20;99.90
46676;DHT22;32412;51.478;5.694;2024-02-14T00:30:45;8.20;99.90
46676;DHT22;32412;51.478;5.694;2024-02-14T00:33:11;8.30;99.90
46676;DHT22;32412;51.478;5.694;2024-02-14T00:35:36;8.30;99.90
46676;DHT22;32412;51.478;5.694;2024-02-14T00:38:02;8.30;99.90
46676;DHT22;32412;51.478;5.694;2024-02-14T00:40:28;8.30;99.90
46676;DHT22;32412;51.478;5.694;2024-02-14T00:42:53;8.40;99.90
46676;DHT22;32412;51.478;5.694;2024-02-14T00:45:19;8.40;99.90
46676;DHT22;32412;51.478;5.694;2024-02-14T00:47:45;8.40;99.90
46676;DHT22;32412;51.478;5.694;2024-02-14T00:50:10;8.50;99.90
46676;DHT22;32412;51.478;5.694;2024-02-14T00:52:39;8.50;99.90
46676;DHT22;32412;51.478;5.694;2024-02-14T00:55:05;8.50;99.90
46676;DHT22;32412;51.478;5.694;2024-02-14T00:57:31;8.50;99.90
46676;DHT22;32412;51.478;5.694;2024-02-14T00:59:57;8.60;99.90
46676;DHT22;32412;51.478;5.694;2024-02-14T01:02:23;8.50;99.90
46676;DHT22;32412;51.478;5.694;2024-02-14T01:04:49;8.60;99.90
46676;DHT22;32412;51.478;5.694;2024-02-14T01:07:15;8.60;99.90
46676;DHT22;32412;51.478;5.694;2024-02-14T01:09:40;8.70;99.90
46676;DHT22;32412;51.478;5.694;2024-02-14T01:12:06;8.60;99.90
46676;DHT22;32412;51.478;5.694;2024-02-14T01:14:32;8.70;99.90
46676;DHT22;32412;51.478;5.694;2024-02-14T01:16:58;8.70;99.90
46676;DHT22;32412;51.478;5.694;2024-02-14T01:19:23;8.80;99.90
46676;DHT22;32412;51.478;5.694;2024-02-14T01:21:51;8.80;99.90
46676;DHT22;32412;51.478;5.694;2024-02-14T01:24:16;8.80;99.90
46676;DHT22;32412;51.478;5.694;2024-02-14T01:26:42;8.80;99.90
46676;DHT22;32412;51.478;5.694;2024-02-14T01:29:08;8.90;99.90
46676;DHT22;32412;51.478;5.694;2024-02-14T01:31:34;8.90;99.90
46676;DHT22;32412;51.478;5.694;2024-02-14T01:34:00;8.90;99.90
46676;DHT22;32412;51.478;5.694;2024-02-14T01:36:29;8.90;99.90
46676;DHT22;32412;51.478;5.694;2024-02-14T01:38:55;8.90;99.90
46676;DHT22;32412;51.478;5.694;2024-02-14T01:41:20;8.90;99.90
46676;DHT22;32412;51.478;5.694;2024-02-14T01:43:49;8.90;99.90
46676;DHT22;32412;51.478;5.694;2024-02-14T01:46:15;9.00;99.90
46676;DHT22;32412;51.478;5.694;2024-02-14T01:48:41;9.00;99.90
46676;DHT22;32412;51.478;5.694;2024-02-14T01:51:11;9.00;99.90
46676;DHT22;32412;51.478;5.694;2024-02-14T01:53:38;9.00;99.90
46676;DHT22;32412;51.478;5.694;2024-02-14T01:56:05;9.00;99.90
46676;DHT22;32412;51.478;5.694;2024-02-14T01:58:32;9.10;99.90
46676;DHT22;32412;51.478;5.694;2024-02-14T02:00:58;9.10;99.90
46676;DHT22;32412;51.478;5.694;2024-02-14T02:03:25;9.10;99.90
46676;DHT22;32412;51.478;5.694;2024-02-14T02:05:55;9.10;99.90
46676;DHT22;32412;51.478;5.694;2024-02-14T02:08:21;9.10;99.90
46676;DHT22;32412;51.478;5.694;2024-02-14T02:10:47;9.20;99.90
46676;DHT22;32412;51.478;5.694;2024-02-14T02:13:13;9.20;99.90
46676;DHT22;32412;51.478;5.694;2024-02-14T02:15:41;9.20;99.90
46676;DHT22;32412;51.478;5.694;2024-02-14T02:18:10;9.20;99.90
46676;DHT22;32412;51.478;5.694;2024-02-14T02:20:35;9.20;99.90
46676;DHT22;32412;51.478;5.694;2024-02-14T02:23:02;9.20;99.90
46676;DHT22;32412;51.478;5.694;2024-02-14T02:25:28;9.30;99.90
46676;DHT22;32412;51.478;5.694;2024-02-14T02:27:53;9.20;99.90
46676;DHT22;32412;51.478;5.694;2024-02-14T02:30:23;9.20;99.90
46676;DHT22;32412;51.478;5.694;2024-02-14T02:32:49;9.20;99.90
46676;DHT22;32412;51.478;5.694;2024-02-14T02:35:18;9.20;99.90
46676;DHT22;32412;51.478;5.694;2024-02-14T02:37:47;9.20;99.90
46676;DHT22;32412;51.478;5.694;2024-02-14T02:40:16;9.20;99.90
46676;DHT22;32412;51.478;5.694;2024-02-14T02:42:42;9.20;99.90
46676;DHT22;32412;51.478;5.694;2024-02-14T02:45:11;9.10;99.90
46676;DHT22;32412;51.478;5.694;2024-02-14T02:47:36;9.10;99.90
46676;DHT22;32412;51.478;5.694;2024-02-14T02:50:02;9.00;99.90
46676;DHT22;32412;51.478;5.694;2024-02-14T02:52:29;9.00;99.90
46676;DHT22;32412;51.478;5.694;2024-02-14T02:54:56;9.00;99.90
46676;DHT22;32412;51.478;5.694;2024-02-14T02:57:22;9.00;99.90
46676;DHT22;32412;51.478;5.694;2024-02-14T02:59:48;9.00;99.90
46676;DHT22;32412;51.478;5.694;2024-02-14T03:02:14;9.00;99.90
46676;DHT22;32412;51.478;5.694;2024-02-14T03:04:40;9.00;99.90
46676;DHT22;32412;51.478;5.694;2024-02-14T03:07:08;9.10;99.90
46676;DHT22;32412;51.478;5.694;2024-02-14T03:09:34;9.10;99.90
46676;DHT22;32412;51.478;5.694;2024-02-14T03:12:04;9.10;99.90
46676;DHT22;32412;51.478;5.694;2024-02-14T03:14:31;9.20;99.90
46676;DHT22;32412;51.478;5.694;2024-02-14T03:16:59;9.10;99.90
46676;DHT22;32412;51.478;5.694;2024-02-14T03:19:25;9.20;99.90
46676;DHT22;32412;51.478;5.694;2024-02-14T03:21:55;9.20;99.90
46676;DHT22;32412;51.478;5.694;2024-02-14T03:24:21;9.20;99.90
46676;DHT22;32412;51.478;5.694;2024-02-14T03:26:47;9.20;99.90
46676;DHT22;32412;51.478;5.694;2024-02-14T03:29:16;9.30;99.90
46676;DHT22;32412;51.478;5.694;2024-02-14T03:31:42;9.30;99.90
46676;DHT22;32412;51.478;5.694;2024-02-14T03:34:09;9.30;99.90
46676;DHT22;32412;51.478;5.694;2024-02-14T03:36:39;9.30;99.90
46676;DHT22;32412;51.478;5.694;2024-02-14T03:39:05;9.40;99.90
46676;DHT22;32412;51.478;5.694;2024-02-14T03:41:31;9.30;99.90
46676;DHT22;32412;51.478;5.694;2024-02-14T03:43:57;9.40;99.90
46676;DHT22;32412;51.478;5.694;2024-02-14T03:46:27;9.40;99.90
46676;DHT22;32412;51.478;5.694;2024-02-14T03:48:54;9.40;99.90
46676;DHT22;32412;51.478;5.694;2024-02-14T03:51:19;9.40;99.90
46676;DHT22;32412;51.478;5.694;2024-02-14T03:53:46;9.40;99.90
46676;DHT22;32412;51.478;5.694;2024-02-14T03:56:11;9.40;99.90
46676;DHT22;32412;51.478;5.694;2024-02-14T03:58:38;9.40;99.90
46676;DHT22;32412;51.478;5.694;2024-02-14T04:01:04;9.40;99.90
46676;DHT22;32412;51.478;5.694;2024-02-14T04:03:30;9.50;99.90
46676;DHT22;32412;51.478;5.694;2024-02-14T04:05:56;9.50;99.90
46676;DHT22;32412;51.478;5.694;2024-02-14T04:08:22;9.50;99.90
46676;DHT22;32412;51.478;5.694;2024-02-14T04:10:48;9.60;99.90
46676;DHT22;32412;51.478;5.694;2024-02-14T04:13:19;9.50;99.90
46676;DHT22;32412;51.478;5.694;2024-02-14T04:15:45;9.60;99.90
46676;DHT22;32412;51.478;5.694;2024-02-14T04:18:11;9.60;99.90
46676;DHT22;32412;51.478;5.694;2024-02-14T04:20:37;9.60;99.90
46676;DHT22;32412;51.478;5.694;2024-02-14T04:23:03;9.70;99.90
46676;DHT22;32412;51.478;5.694;2024-02-14T04:25:32;9.70;99.90
46676;DHT22;32412;51.478;5.694;2024-02-14T04:27:57;9.60;99.90
46676;DHT22;32412;51.478;5.694;2024-02-14T04:30:24;9.70;99.90
46676;DHT22;32412;51.478;5.694;2024-02-14T04:32:50;9.70;99.90
46676;DHT22;32412;51.478;5.694;2024-02-14T04:35:19;9.70;99.90
46676;DHT22;32412;51.478;5.694;2024-02-14T04:37:45;9.70;99.90
46676;DHT22;32412;51.478;5.694;2024-02-14T04:40:12;9.70;99.90
46676;DHT22;32412;51.478;5.694;2024-02-14T04:42:38;9.70;99.90
46676;DHT22;32412;51.478;5.694;2024-02-14T04:45:04;9.70;99.90
46676;DHT22;32412;51.478;5.694;2024-02-14T04:47:30;9.70;99.90
46676;DHT22;32412;51.478;5.694;2024-02-14T04:49:56;9.70;99.90
46676;DHT22;32412;51.478;5.694;2024-02-14T04:52:22;9.80;99.90
46676;DHT22;32412;51.478;5.694;2024-02-14T04:54:47;9.80;99.90
46676;DHT22;32412;51.478;5.694;2024-02-14T04:57:13;9.80;99.90
46676;DHT22;32412;51.478;5.694;2024-02-14T04:59:39;9.80;99.90
46676;DHT22;32412;51.478;5.694;2024-02-14T05:02:05;9.80;99.90
46676;DHT22;32412;51.478;5.694;2024-02-14T05:04:30;9.80;99.90
46676;DHT22;32412;51.478;5.694;2024-02-14T05:06:57;9.90;99.90
46676;DHT22;32412;51.478;5.694;2024-02-14T05:09:22;9.80;99.90
46676;DHT22;32412;51.478;5.694;2024-02-14T05:11:48;9.90;99.90
46676;DHT22;32412;51.478;5.694;2024-02-14T05:14:14;9.80;99.90
46676;DHT22;32412;51.478;5.694;2024-02-14T05:16:40;9.80;99.90
46676;DHT22;32412;51.478;5.694;2024-02-14T05:19:06;9.80;99.90
46676;DHT22;32412;51.478;5.694;2024-02-14T05:21:31;9.70;99.90
46676;DHT22;32412;51.478;5.694;2024-02-14T05:23:57;9.70;99.90
46676;DHT22;32412;51.478;5.694;2024-02-14T05:26:23;9.70;99.90
46676;DHT22;32412;51.478;5.694;2024-02-14T05:28:48;9.60;99.90
46676;DHT22;32412;51.478;5.694;2024-02-14T05:31:15;9.60;99.90
46676;DHT22;32412;51.478;5.694;2024-02-14T05:33:41;9.60;99.90
46676;DHT22;32412;51.478;5.694;2024-02-14T05:36:08;9.60;99.90
46676;DHT22;32412;51.478;5.694;2024-02-14T05:38:34;9.70;99.90
46676;DHT22;32412;51.478;5.694;2024-02-14T05:41:01;9.60;99.90
46676;DHT22;32412;51.478;5.694;2024-02-14T05:43:27;9.70;99.90
46676;DHT22;32412;51.478;5.694;2024-02-14T05:45:52;9.70;99.90
46676;DHT22;32412;51.478;5.694;2024-02-14T05:48:19;9.60;99.90
46676;DHT22;32412;51.478;5.694;2024-02-14T05:50:45;9.70;99.90
46676;DHT22;32412;51.478;5.694;2024-02-14T05:53:11;9.70;99.90
46676;DHT22;32412;51.478;5.694;2024-02-14T05:55:38;9.70;99.90
46676;DHT22;32412;51.478;5.694;2024-02-14T05:58:04;9.70;99.90
46676;DHT22;32412;51.478;5.694;2024-02-14T06:00:30;9.70;99.90
46676;DHT22;32412;51.478;5.694;2024-02-14T06:02:56;9.70;99.90
46676;DHT22;32412;51.478;5.694;2024-02-14T06:05:21;9.70;99.90
46676;DHT22;32412;51.478;5.694;2024-02-14T06:07:47;9.70;99.90
46676;DHT22;32412;51.478;5.694;2024-02-14T06:10:13;9.60;99.90
46676;DHT22;32412;51.478;5.694;2024-02-14T06:12:39;9.70;99.90
46676;DHT22;32412;51.478;5.694;2024-02-14T06:15:07;9.70;99.90
46676;DHT22;32412;51.478;5.694;2024-02-14T06:17:33;9.70;99.90
46676;DHT22;32412;51.478;5.694;2024-02-14T06:19:59;9.70;99.90
46676;DHT22;32412;51.478;5.694;2024-02-14T06:22:25;9.60;99.90
46676;DHT22;32412;51.478;5.694;2024-02-14T06:24:51;9.70;99.90
46676;DHT22;32412;51.478;5.694;2024-02-14T06:27:17;9.70;99.90
46676;DHT22;32412;51.478;5.694;2024-02-14T06:29:43;9.60;99.90
46676;DHT22;32412;51.478;5.694;2024-02-14T06:32:09;9.70;99.90
46676;DHT22;32412;51.478;5.694;2024-02-14T06:34:34;9.70;99.90
46676;DHT22;32412;51.478;5.694;2024-02-14T06:37:00;9.70;99.90
46676;DHT22;32412;51.478;5.694;2024-02-14T06:39:25;9.70;99.90
46676;DHT22;32412;51.478;5.694;2024-02-14T06:41:51;9.70;99.90
46676;DHT22;32412;51.478;5.694;2024-02-14T06:44:17;9.70;99.90
46676;DHT22;32412;51.478;5.694;2024-02-14T06:46:44;9.80;99.90
46676;DHT22;32412;51.478;5.694;2024-02-14T06:49:09;9.80;99.90
46676;DHT22;32412;51.478;5.694;2024-02-14T06:51:35;9.80;99.90
46676;DHT22;32412;51.478;5.694;2024-02-14T06:54:01;9.80;99.90
46676;DHT22;32412;51.478;5.694;2024-02-14T06:56:26;9.80;99.90
46676;DHT22;32412;51.478;5.694;2024-02-14T06:58:52;9.90;99.90
46676;DHT22;32412;51.478;5.694;2024-02-14T07:01:25;9.90;99.90
46676;DHT22;32412;51.478;5.694;2024-02-14T07:03:51;9.90;99.90
46676;DHT22;32412;51.478;5.694;2024-02-14T07:06:17;10.00;99.90
46676;DHT22;32412;51.478;5.694;2024-02-14T07:08:43;10.00;99.90
46676;DHT22;32412;51.478;5.694;2024-02-14T07:11:09;10.00;99.90
46676;DHT22;32412;51.478;5.694;2024-02-14T07:13:34;10.00;99.90
46676;DHT22;32412;51.478;5.694;2024-02-14T07:16:00;10.00;99.90
46676;DHT22;32412;51.478;5.694;2024-02-14T07:18:26;9.90;99.90
46676;DHT22;32412;51.478;5.694;2024-02-14T07:20:52;9.90;99.90
46676;DHT22;32412;51.478;5.694;2024-02-14T07:23:18;9.90;99.90
46676;DHT22;32412;51.478;5.694;2024-02-14T07:25:44;9.90;99.90
46676;DHT22;32412;51.478;5.694;2024-02-14T07:28:10;9.90;99.90
46676;DHT22;32412;51.478;5.694;2024-02-14T07:30:36;9.90;99.90
46676;DHT22;32412;51.478;5.694;2024-02-14T07:33:01;9.90;99.90
46676;DHT22;32412;51.478;5.694;2024-02-14T07:35:27;9.90;99.90
46676;DHT22;32412;51.478;5.694;2024-02-14T07:37:53;9.90;99.90
46676;DHT22;32412;51.478;5.694;2024-02-14T07:40:19;9.90;99.90
46676;DHT22;32412;51.478;5.694;2024-02-14T07:42:44;10.00;99.90
46676;DHT22;32412;51.478;5.694;2024-02-14T07:45:10;10.00;99.90
46676;DHT22;32412;51.478;5.694;2024-02-14T07:47:36;10.00;99.90
46676;DHT22;32412;51.478;5.694;2024-02-14T07:50:01;10.00;99.90
46676;DHT22;32412;51.478;5.694;2024-02-14T07:52:28;10.00;99.90
46676;DHT22;32412;51.478;5.694;2024-02-14T07:54:54;10.00;99.90
46676;DHT22;32412;51.478;5.694;2024-02-14T07:57:23;9.90;99.90
46676;DHT22;32412;51.478;5.694;2024-02-14T07:59:50;10.00;99.90
46676;DHT22;32412;51.478;5.694;2024-02-14T08:02:17;10.00;99.90
46676;DHT22;32412;51.478;5.694;2024-02-14T08:04:42;10.00;99.90
46676;DHT22;32412;51.478;5.694;2024-02-14T08:07:09;10.00;99.90
46676;DHT22;32412;51.478;5.694;2024-02-14T08:09:35;10.00;99.90
46676;DHT22;32412;51.478;5.694;2024-02-14T08:12:00;10.10;99.90
46676;DHT22;32412;51.478;5.694;2024-02-14T08:14:26;10.00;99.90
46676;DHT22;32412;51.478;5.694;2024-02-14T08:16:52;10.10;99.90
46676;DHT22;32412;51.478;5.694;2024-02-14T08:19:18;10.10;99.90
46676;DHT22;32412;51.478;5.694;2024-02-14T08:21:44;10.10;99.90
46676;DHT22;32412;51.478;5.694;2024-02-14T08:24:10;10.10;99.90
46676;DHT22;32412;51.478;5.694;2024-02-14T08:26:36;10.10;99.90
46676;DHT22;32412;51.478;5.694;2024-02-14T08:29:02;10.10;99.90
46676;DHT22;32412;51.478;5.694;2024-02-14T08:31:29;10.20;99.90
46676;DHT22;32412;51.478;5.694;2024-02-14T08:33:54;10.20;99.90
46676;DHT22;32412;51.478;5.694;2024-02-14T08:36:20;10.20;99.90
46676;DHT22;32412;51.478;5.694;2024-02-14T08:38:46;10.20;99.90
46676;DHT22;32412;51.478;5.694;2024-02-14T08:41:12;10.20;99.90
46676;DHT22;32412;51.478;5.694;2024-02-14T08:43:38;10.20;99.90
46676;DHT22;32412;51.478;5.694;2024-02-14T08:46:09;10.20;99.90
46676;DHT22;32412;51.478;5.694;2024-02-14T08:48:35;10.30;99.90
46676;DHT22;32412;51.478;5.694;2024-02-14T08:51:01;10.30;99.90
46676;DHT22;32412;51.478;5.694;2024-02-14T08:53:26;10.30;99.90
46676;DHT22;32412;51.478;5.694;2024-02-14T08:55:52;10.30;99.90
46676;DHT22;32412;51.478;5.694;2024-02-14T08:58:18;10.40;99.90
46676;DHT22;32412;51.478;5.694;2024-02-14T09:00:43;10.50;99.90
46676;DHT22;32412;51.478;5.694;2024-02-14T09:03:09;10.50;99.90
46676;DHT22;32412;51.478;5.694;2024-02-14T09:05:35;10.50;99.90
46676;DHT22;32412;51.478;5.694;2024-02-14T09:08:01;10.60;99.90
46676;DHT22;32412;51.478;5.694;2024-02-14T09:10:27;10.70;99.90
46676;DHT22;32412;51.478;5.694;2024-02-14T09:12:52;10.80;99.90
46676;DHT22;32412;51.478;5.694;2024-02-14T09:15:18;10.90;99.90
46676;DHT22;32412;51.478;5.694;2024-02-14T09:17:45;10.90;99.90
46676;DHT22;32412;51.478;5.694;2024-02-14T09:20:11;10.90;99.90
46676;DHT22;32412;51.478;5.694;2024-02-14T09:22:39;10.90;99.90
46676;DHT22;32412;51.478;5.694;2024-02-14T09:25:07;11.00;99.90
46676;DHT22;32412;51.478;5.694;2024-02-14T09:27:35;11.00;99.90
46676;DHT22;32412;51.478;5.694;2024-02-14T09:30:02;11.00;99.90
46676;DHT22;32412;51.478;5.694;2024-02-14T09:32:30;10.90;99.90
46676;DHT22;32412;51.478;5.694;2024-02-14T09:34:55;10.90;99.90
46676;DHT22;32412;51.478;5.694;2024-02-14T09:37:22;11.00;99.90
46676;DHT22;32412;51.478;5.694;2024-02-14T09:39:49;11.00;99.90
46676;DHT22;32412;51.478;5.694;2024-02-14T09:42:16;11.00;99.90
46676;DHT22;32412;51.478;5.694;2024-02-14T09:44:45;11.10;99.90
46676;DHT22;32412;51.478;5.694;2024-02-14T09:47:12;11.10;99.90
46676;DHT22;32412;51.478;5.694;2024-02-14T09:49:39;11.20;99.90
46676;DHT22;32412;51.478;5.694;2024-02-14T09:52:06;11.20;99.90
46676;DHT22;32412;51.478;5.694;2024-02-14T09:54:33;11.30;99.90
46676;DHT22;32412;51.478;5.694;2024-02-14T09:57:04;11.30;99.90
46676;DHT22;32412;51.478;5.694;2024-02-14T09:59:32;11.40;99.90
46676;DHT22;32412;51.478;5.694;2024-02-14T10:01:58;11.40;99.90
46676;DHT22;32412;51.478;5.694;2024-02-14T10:04:23;11.40;99.90
46676;DHT22;32412;51.478;5.694;2024-02-14T10:06:51;11.40;99.90
46676;DHT22;32412;51.478;5.694;2024-02-14T10:09:21;11.40;99.90
46676;DHT22;32412;51.478;5.694;2024-02-14T10:11:47;11.40;99.90
46676;DHT22;32412;51.478;5.694;2024-02-14T10:14:13;11.30;99.90
46676;DHT22;32412;51.478;5.694;2024-02-14T10:16:39;11.30;99.90
46676;DHT22;32412;51.478;5.694;2024-02-14T10:19:05;11.20;99.90
46676;DHT22;32412;51.478;5.694;2024-02-14T10:21:33;11.20;99.90
46676;DHT22;32412;51.478;5.694;2024-02-14T10:24:02;11.30;99.90
46676;DHT22;32412;51.478;5.694;2024-02-14T10:26:30;11.20;99.90
46676;DHT22;32412;51.478;5.694;2024-02-14T10:28:57;11.30;99.90
46676;DHT22;32412;51.478;5.694;2024-02-14T10:31:26;11.30;99.90
46676;DHT22;32412;51.478;5.694;2024-02-14T10:33:55;11.30;99.90
46676;DHT22;32412;51.478;5.694;2024-02-14T10:36:22;11.30;99.90
46676;DHT22;32412;51.478;5.694;2024-02-14T10:38:47;11.40;99.90
46676;DHT22;32412;51.478;5.694;2024-02-14T10:41:18;11.40;99.90
46676;DHT22;32412;51.478;5.694;2024-02-14T10:43:44;11.40;99.90
46676;DHT22;32412;51.478;5.694;2024-02-14T10:46:31;11.40;99.90
46676;DHT22;32412;51.478;5.694;2024-02-14T10:49:07;11.40;99.90
46676;DHT22;32412;51.478;5.694;2024-02-14T10:51:36;11.40;99.90
46676;DHT22;32412;51.478;5.694;2024-02-14T10:54:13;11.50;99.90
46676;DHT22;32412;51.478;5.694;2024-02-14T10:56:42;11.50;99.90
46676;DHT22;32412;51.478;5.694;2024-02-14T10:59:12;11.50;99.90
46676;DHT22;32412;51.478;5.694;2024-02-14T11:01:39;11.60;99.90
46676;DHT22;32412;51.478;5.694;2024-02-14T11:04:06;11.60;99.90
46676;DHT22;32412;51.478;5.694;2024-02-14T11:06:31;11.70;99.90
46676;DHT22;32412;51.478;5.694;2024-02-14T11:09:02;11.70;99.90
46676;DHT22;32412;51.478;5.694;2024-02-14T11:11:33;11.80;99.90
46676;DHT22;32412;51.478;5.694;2024-02-14T11:13:59;11.80;99.90
46676;DHT22;32412;51.478;5.694;2024-02-14T11:16:25;11.70;99.90
46676;DHT22;32412;51.478;5.694;2024-02-14T11:19:14;11.70;99.90
46676;DHT22;32412;51.478;5.694;2024-02-14T11:21:44;11.70;99.90
46676;DHT22;32412;51.478;5.694;2024-02-14T11:24:12;11.70;99.90
46676;DHT22;32412;51.478;5.694;2024-02-14T11:26:51;11.60;99.90
46676;DHT22;32412;51.478;5.694;2024-02-14T11:29:17;11.60;99.90
46676;DHT22;32412;51.478;5.694;2024-02-14T11:31:44;11.60;99.90
46676;DHT22;32412;51.478;5.694;2024-02-14T11:34:14;11.60;99.90
46676;DHT22;32412;51.478;5.694;2024-02-14T11:36:44;11.50;99.90
46676;DHT22;32412;51.478;5.694;2024-02-14T11:39:11;11.50;99.90
46676;DHT22;32412;51.478;5.694;2024-02-14T11:41:39;11.50;99.90
46676;DHT22;32412;51.478;5.694;2024-02-14T11:44:07;11.50;99.90
46676;DHT22;32412;51.478;5.694;2024-02-14T11:46:34;11.40;99.90
46676;DHT22;32412;51.478;5.694;2024-02-14T11:49:02;11.40;99.90
46676;DHT22;32412;51.478;5.694;2024-02-14T11:51:29;11.40;99.90
46676;DHT22;32412;51.478;5.694;2024-02-14T11:53:57;11.40;99.90
46676;DHT22;32412;51.478;5.694;2024-02-14T11:56:30;11.40;99.90
46676;DHT22;32412;51.478;5.694;2024-02-14T11:59:00;11.40;99.90
46676;DHT22;32412;51.478;5.694;2024-02-14T12:01:29;11.40;99.90
46676;DHT22;32412;51.478;5.694;2024-02-14T12:03:59;11.40;99.90
46676;DHT22;32412;51.478;5.694;2024-02-14T12:06:29;11.40;99.90
46676;DHT22;32412;51.478;5.694;2024-02-14T12:09:02;11.40;99.90
46676;DHT22;32412;51.478;5.694;2024-02-14T12:11:31;11.50;99.90
46676;DHT22;32412;51.478;5.694;2024-02-14T12:14:01;11.50;99.90
46676;DHT22;32412;51.478;5.694;2024-02-14T12:16:28;11.50;99.90
46676;DHT22;32412;51.478;5.694;2024-02-14T12:19:14;11.60;99.90
46676;DHT22;32412;51.478;5.694;2024-02-14T12:21:41;11.60;99.90
46676;DHT22;32412;51.478;5.694;2024-02-14T12:24:08;11.60;99.90
46676;DHT22;32412;51.478;5.694;2024-02-14T12:26:37;11.70;99.90
46676;DHT22;32412;51.478;5.694;2024-02-14T12:29:04;11.70;99.90
46676;DHT22;32412;51.478;5.694;2024-02-14T12:31:30;11.70;99.90
46676;DHT22;32412;51.478;5.694;2024-02-14T12:33:59;11.80;99.90
46676;DHT22;32412;51.478;5.694;2024-02-14T12:36:33;11.80;99.90
46676;DHT22;32412;51.478;5.694;2024-02-14T12:39:00;11.80;99.90
46676;DHT22;32412;51.478;5.694;2024-02-14T12:41:28;11.80;99.90
46676;DHT22;32412;51.478;5.694;2024-02-14T12:43:55;11.80;99.90
46676;DHT22;32412;51.478;5.694;2024-02-14T12:46:21;11.80;99.90
46676;DHT22;32412;51.478;5.694;2024-02-14T12:48:46;11.80;99.90
46676;DHT22;32412;51.478;5.694;2024-02-14T12:51:13;11.70;99.90
46676;DHT22;32412;51.478;5.694;2024-02-14T12:53:39;11.70;99.90
46676;DHT22;32412;51.478;5.694;2024-02-14T12:56:05;11.70;99.90
46676;DHT22;32412;51.478;5.694;2024-02-14T12:58:32;11.70;99.90
46676;DHT22;32412;51.478;5.694;2024-02-14T13:00:58;11.70;99.90
46676;DHT22;32412;51.478;5.694;2024-02-14T13:03:24;11.70;99.90
46676;DHT22;32412;51.478;5.694;2024-02-14T13:05:50;11.70;99.90
46676;DHT22;32412;51.478;5.694;2024-02-14T13:08:18;11.60;99.90
46676;DHT22;32412;51.478;5.694;2024-02-14T13:10:44;11.60;99.90
46676;DHT22;32412;51.478;5.694;2024-02-14T13:13:10;11.60;99.90
46676;DHT22;32412;51.478;5.694;2024-02-14T13:15:36;11.60;99.90
46676;DHT22;32412;51.478;5.694;2024-02-14T13:18:02;11.60;99.90
46676;DHT22;32412;51.478;5.694;2024-02-14T13:20:28;11.60;99.90
46676;DHT22;32412;51.478;5.694;2024-02-14T13:22:55;11.70;99.90
46676;DHT22;32412;51.478;5.694;2024-02-14T13:25:20;11.70;99.90
46676;DHT22;32412;51.478;5.694;2024-02-14T13:27:47;11.70;99.90
46676;DHT22;32412;51.478;5.694;2024-02-14T13:30:13;11.70;99.90
46676;DHT22;32412;51.478;5.694;2024-02-14T13:32:38;11.70;99.90
46676;DHT22;32412;51.478;5.694;2024-02-14T13:35:04;11.70;99.90
46676;DHT22;32412;51.478;5.694;2024-02-14T13:37:31;11.70;99.90
46676;DHT22;32412;51.478;5.694;2024-02-14T13:39:57;11.80;99.90
46676;DHT22;32412;51.478;5.694;2024-02-14T13:42:23;11.80;99.90
46676;DHT22;32412;51.478;5.694;2024-02-14T13:44:49;11.70;99.90
46676;DHT22;32412;51.478;5.694;2024-02-14T13:47:17;11.70;99.90
46676;DHT22;32412;51.478;5.694;2024-02-14T13:49:47;11.70;99.90
46676;DHT22;32412;51.478;5.694;2024-02-14T13:52:12;11.70;99.90
46676;DHT22;32412;51.478;5.694;2024-02-14T13:54:38;11.70;99.90
46676;DHT22;32412;51.478;5.694;2024-02-14T13:57:04;11.70;99.90
46676;DHT22;32412;51.478;5.694;2024-02-14T13:59:29;11.70;99.90
46676;DHT22;32412;51.478;5.694;2024-02-14T14:01:55;11.70;99.90
46676;DHT22;32412;51.478;5.694;2024-02-14T14:04:21;11.60;99.90
46676;DHT22;32412;51.478;5.694;2024-02-14T14:06:47;11.60;99.90
46676;DHT22;32412;51.478;5.694;2024-02-14T14:09:13;11.60;99.90
46676;DHT22;32412;51.478;5.694;2024-02-14T14:11:39;11.60;99.90
46676;DHT22;32412;51.478;5.694;2024-02-14T14:14:05;11.70;99.90
46676;DHT22;32412;51.478;5.694;2024-02-14T14:16:31;11.70;99.90
46676;DHT22;32412;51.478;5.694;2024-02-14T14:18:58;11.70;99.90
46676;DHT22;32412;51.478;5.694;2024-02-14T14:21:24;11.60;99.90
46676;DHT22;32412;51.478;5.694;2024-02-14T14:23:50;11.60;99.90
46676;DHT22;32412;51.478;5.694;2024-02-14T14:26:16;11.70;99.90
46676;DHT22;32412;51.478;5.694;2024-02-14T14:28:42;11.60;99.90
46676;DHT22;32412;51.478;5.694;2024-02-14T14:31:08;11.70;99.90
46676;DHT22;32412;51.478;5.694;2024-02-14T14:33:36;11.70;99.90
46676;DHT22;32412;51.478;5.694;2024-02-14T14:36:04;11.70;99.90
46676;DHT22;32412;51.478;5.694;2024-02-14T14:38:30;11.70;99.90
46676;DHT22;32412;51.478;5.694;2024-02-14T14:40:56;11.70;99.90
46676;DHT22;32412;51.478;5.694;2024-02-14T14:43:22;11.70;99.90
46676;DHT22;32412;51.478;5.694;2024-02-14T14:45:48;11.70;99.90
46676;DHT22;32412;51.478;5.694;2024-02-14T14:48:15;11.70;99.90
46676;DHT22;32412;51.478;5.694;2024-02-14T14:50:41;11.70;99.90
46676;DHT22;32412;51.478;5.694;2024-02-14T14:53:07;11.70;99.90
46676;DHT22;32412;51.478;5.694;2024-02-14T14:55:53;11.70;99.90
46676;DHT22;32412;51.478;5.694;2024-02-14T14:58:21;11.70;99.90
46676;DHT22;32412;51.478;5.694;2024-02-14T15:00:48;11.80;99.90
46676;DHT22;32412;51.478;5.694;2024-02-14T15:03:14;11.80;99.90
46676;DHT22;32412;51.478;5.694;2024-02-14T15:05:40;11.90;99.90
46676;DHT22;32412;51.478;5.694;2024-02-14T15:08:07;11.90;99.90
46676;DHT22;32412;51.478;5.694;2024-02-14T15:10:33;11.90;99.90
46676;DHT22;32412;51.478;5.694;2024-02-14T15:13:00;11.90;99.90
46676;DHT22;32412;51.478;5.694;2024-02-14T15:15:26;11.90;99.90
46676;DHT22;32412;51.478;5.694;2024-02-14T15:17:52;11.90;99.90
46676;DHT22;32412;51.478;5.694;2024-02-14T15:20:17;11.90;99.90
46676;DHT22;32412;51.478;5.694;2024-02-14T15:22:43;11.90;99.90
46676;DHT22;32412;51.478;5.694;2024-02-14T15:25:08;11.90;99.90
46676;DHT22;32412;51.478;5.694;2024-02-14T15:27:34;11.90;99.90
46676;DHT22;32412;51.478;5.694;2024-02-14T15:30:06;11.90;99.90
46676;DHT22;32412;51.478;5.694;2024-02-14T15:32:50;11.90;99.90
46676;DHT22;32412;51.478;5.694;2024-02-14T15:35:34;11.90;99.90